sensor_id;sensor_type;location;lat;lon;timestamp;temperature;humidity
52181;DHT22;38158;53.338;6.514;2024-03-07T00:02:09;5.60;99.90
52181;DHT22;38158;53.338;6.514;2024-03-07T00:04:35;5.30;99.90
52181;DHT22;38158;53.338;6.514;2024-03-07T00:07:05;6.00;99.90
52181;DHT22;38158;53.338;6.514;2024-03-07T00:09:34;5.20;99.90
52181;DHT22;38158;53.338;6.514;2024-03-07T00:12:01;5.20;99.90
52181;DHT22;38158;53.338;6.514;2024-03-07T00:14:26;5.20;99.90
52181;DHT22;38158;53.338;6.514;2024-03-07T00:16:58;5.20;99.90
52181;DHT22;38158;53.338;6.514;2024-03-07T00:19:28;6.10;99.90
52181;DHT22;38158;53.338;6.514;2024-03-07T00:21:55;5.10;99.90
52181;DHT22;38158;53.338;6.514;2024-03-07T00:24:21;5.10;99.90
52181;DHT22;38158;53.338;6.514;2024-03-07T00:26:47;5.50;99.90
52181;DHT22;38158;53.338;6.514;2024-03-07T00:29:15;5.20;99.90
52181;DHT22;38158;53.338;6.514;2024-03-07T00:31:46;4.90;99.90
52181;DHT22;38158;53.338;6.514;2024-03-07T00:34:13;4.90;99.90
52181;DHT22;38158;53.338;6.514;2024-03-07T00:36:44;5.50;99.90
52181;DHT22;38158;53.338;6.514;2024-03-07T00:39:10;4.80;99.90
52181;DHT22;38158;53.338;6.514;2024-03-07T00:41:39;4.80;99.90
52181;DHT22;38158;53.338;6.514;2024-03-07T00:44:06;4.70;99.90
52181;DHT22;38158;53.338;6.514;2024-03-07T00:46:35;4.70;99.90
52181;DHT22;38158;53.338;6.514;2024-03-07T00:49:01;4.70;99.90
52181;DHT22;38158;53.338;6.514;2024-03-07T00:51:27;4.80;99.90
52181;DHT22;38158;53.338;6.514;2024-03-07T00:53:52;4.70;99.90
52181;DHT22;38158;53.338;6.514;2024-03-07T00:56:18;5.30;99.90
52181;DHT22;38158;53.338;6.514;2024-03-07T00:58:44;5.80;99.90
52181;DHT22;38158;53.338;6.514;2024-03-07T01:01:10;5.80;99.90
52181;DHT22;38158;53.338;6.514;2024-03-07T01:03:37;4.90;99.90
52181;DHT22;38158;53.338;6.514;2024-03-07T01:06:03;4.70;99.90
52181;DHT22;38158;53.338;6.514;2024-03-07T01:08:29;4.70;99.90
52181;DHT22;38158;53.338;6.514;2024-03-07T01:10:58;4.70;99.90
52181;DHT22;38158;53.338;6.514;2024-03-07T01:13:23;4.70;99.90
52181;DHT22;38158;53.338;6.514;2024-03-07T01:15:50;4.70;99.90
52181;DHT22;38158;53.338;6.514;2024-03-07T01:18:16;4.70;99.90
52181;DHT22;38158;53.338;6.514;2024-03-07T01:20:42;4.60;99.90
52181;DHT22;38158;53.338;6.514;2024-03-07T01:23:08;4.60;99.90
52181;DHT22;38158;53.338;6.514;2024-03-07T01:25:34;4.60;99.90
52181;DHT22;38158;53.338;6.514;2024-03-07T01:28:00;5.60;99.90
52181;DHT22;38158;53.338;6.514;2024-03-07T01:30:26;4.60;99.90
52181;DHT22;38158;53.338;6.514;2024-03-07T01:32:56;5.20;99.90
52181;DHT22;38158;53.338;6.514;2024-03-07T01:35:22;5.10;99.90
52181;DHT22;38158;53.338;6.514;2024-03-07T01:37:48;5.40;99.90
52181;DHT22;38158;53.338;6.514;2024-03-07T01:40:13;5.30;99.90
52181;DHT22;38158;53.338;6.514;2024-03-07T01:42:40;4.30;99.90
52181;DHT22;38158;53.338;6.514;2024-03-07T01:45:06;4.20;99.90
52181;DHT22;38158;53.338;6.514;2024-03-07T01:47:34;4.20;99.90
52181;DHT22;38158;53.338;6.514;2024-03-07T01:50:02;4.10;99.90
52181;DHT22;38158;53.338;6.514;2024-03-07T01:52:29;4.50;99.90
52181;DHT22;38158;53.338;6.514;2024-03-07T01:54:56;4.10;99.90
52181;DHT22;38158;53.338;6.514;2024-03-07T01:57:22;4.10;99.90
52181;DHT22;38158;53.338;6.514;2024-03-07T01:59:47;4.10;99.90
52181;DHT22;38158;53.338;6.514;2024-03-07T02:02:13;4.00;99.90
52181;DHT22;38158;53.338;6.514;2024-03-07T02:04:39;4.00;99.90
52181;DHT22;38158;53.338;6.514;2024-03-07T02:07:05;3.90;99.90
52181;DHT22;38158;53.338;6.514;2024-03-07T02:09:31;3.80;99.90
52181;DHT22;38158;53.338;6.514;2024-03-07T02:11:57;3.80;99.90
52181;DHT22;38158;53.338;6.514;2024-03-07T02:14:23;3.70;99.90
52181;DHT22;38158;53.338;6.514;2024-03-07T02:16:48;4.00;99.90
52181;DHT22;38158;53.338;6.514;2024-03-07T02:19:15;3.60;99.90
52181;DHT22;38158;53.338;6.514;2024-03-07T02:21:41;3.60;99.90
52181;DHT22;38158;53.338;6.514;2024-03-07T02:24:07;4.40;99.90
52181;DHT22;38158;53.338;6.514;2024-03-07T02:26:34;3.50;99.90
52181;DHT22;38158;53.338;6.514;2024-03-07T02:28:59;3.60;99.90
52181;DHT22;38158;53.338;6.514;2024-03-07T02:31:25;3.50;99.90
52181;DHT22;38158;53.338;6.514;2024-03-07T02:34:02;3.50;99.90
52181;DHT22;38158;53.338;6.514;2024-03-07T02:36:27;3.50;99.90
52181;DHT22;38158;53.338;6.514;2024-03-07T02:38:54;3.80;99.90
52181;DHT22;38158;53.338;6.514;2024-03-07T02:41:20;3.90;99.90
52181;DHT22;38158;53.338;6.514;2024-03-07T02:43:46;3.30;99.90
52181;DHT22;38158;53.338;6.514;2024-03-07T02:46:11;3.30;99.90
52181;DHT22;38158;53.338;6.514;2024-03-07T02:48:38;3.30;99.90
52181;DHT22;38158;53.338;6.514;2024-03-07T02:51:04;3.30;99.90
52181;DHT22;38158;53.338;6.514;2024-03-07T02:53:33;3.50;99.90
52181;DHT22;38158;53.338;6.514;2024-03-07T02:55:59;3.10;99.90
52181;DHT22;38158;53.338;6.514;2024-03-07T02:58:24;3.30;99.90
52181;DHT22;38158;53.338;6.514;2024-03-07T03:00:57;3.10;99.90
52181;DHT22;38158;53.338;6.514;2024-03-07T03:03:25;3.60;99.90
52181;DHT22;38158;53.338;6.514;2024-03-07T03:05:51;3.80;99.90
52181;DHT22;38158;53.338;6.514;2024-03-07T03:08:17;3.40;99.90
52181;DHT22;38158;53.338;6.514;2024-03-07T03:10:43;3.00;99.90
52181;DHT22;38158;53.338;6.514;2024-03-07T03:13:09;3.00;99.90
52181;DHT22;38158;53.338;6.514;2024-03-07T03:15:35;2.90;99.90
52181;DHT22;38158;53.338;6.514;2024-03-07T03:18:04;2.90;99.90
52181;DHT22;38158;53.338;6.514;2024-03-07T03:20:31;2.80;99.90
52181;DHT22;38158;53.338;6.514;2024-03-07T03:22:59;2.80;99.90
52181;DHT22;38158;53.338;6.514;2024-03-07T03:25:25;2.80;99.90
52181;DHT22;38158;53.338;6.514;2024-03-07T03:27:54;2.70;99.90
52181;DHT22;38158;53.338;6.514;2024-03-07T03:30:20;2.70;99.90
52181;DHT22;38158;53.338;6.514;2024-03-07T03:32:47;2.60;99.90
52181;DHT22;38158;53.338;6.514;2024-03-07T03:35:16;2.60;99.90
52181;DHT22;38158;53.338;6.514;2024-03-07T03:37:42;3.20;99.90
52181;DHT22;38158;53.338;6.514;2024-03-07T03:40:10;2.60;99.90
52181;DHT22;38158;53.338;6.514;2024-03-07T03:42:36;2.60;99.90
52181;DHT22;38158;53.338;6.514;2024-03-07T03:45:03;2.90;99.90
52181;DHT22;38158;53.338;6.514;2024-03-07T03:47:34;2.60;99.90
52181;DHT22;38158;53.338;6.514;2024-03-07T03:49:59;2.60;99.90
52181;DHT22;38158;53.338;6.514;2024-03-07T03:52:25;2.60;99.90
52181;DHT22;38158;53.338;6.514;2024-03-07T03:54:51;2.60;99.90
52181;DHT22;38158;53.338;6.514;2024-03-07T03:57:17;2.70;99.90
52181;DHT22;38158;53.338;6.514;2024-03-07T03:59:43;2.50;99.90
52181;DHT22;38158;53.338;6.514;2024-03-07T04:02:10;2.50;99.90
52181;DHT22;38158;53.338;6.514;2024-03-07T04:04:39;2.50;99.90
52181;DHT22;38158;53.338;6.514;2024-03-07T04:07:05;2.50;99.90
52181;DHT22;38158;53.338;6.514;2024-03-07T04:09:31;2.50;99.90
52181;DHT22;38158;53.338;6.514;2024-03-07T04:11:57;2.50;99.90
52181;DHT22;38158;53.338;6.514;2024-03-07T04:14:26;2.40;99.90
52181;DHT22;38158;53.338;6.514;2024-03-07T04:16:51;2.40;99.90
52181;DHT22;38158;53.338;6.514;2024-03-07T04:19:20;2.40;99.90
52181;DHT22;38158;53.338;6.514;2024-03-07T04:21:46;2.40;99.90
52181;DHT22;38158;53.338;6.514;2024-03-07T04:24:12;3.40;99.90
52181;DHT22;38158;53.338;6.514;2024-03-07T04:26:38;2.30;99.90
52181;DHT22;38158;53.338;6.514;2024-03-07T04:29:07;2.30;99.90
52181;DHT22;38158;53.338;6.514;2024-03-07T04:31:34;2.20;99.90
52181;DHT22;38158;53.338;6.514;2024-03-07T04:34:00;2.20;99.90
52181;DHT22;38158;53.338;6.514;2024-03-07T04:36:25;2.20;99.90
52181;DHT22;38158;53.338;6.514;2024-03-07T04:38:52;2.20;99.90
52181;DHT22;38158;53.338;6.514;2024-03-07T04:41:18;4.10;99.90
52181;DHT22;38158;53.338;6.514;2024-03-07T04:43:44;2.20;99.90
52181;DHT22;38158;53.338;6.514;2024-03-07T04:46:10;2.20;99.90
52181;DHT22;38158;53.338;6.514;2024-03-07T04:48:36;2.10;99.90
52181;DHT22;38158;53.338;6.514;2024-03-07T04:51:02;2.20;99.90
52181;DHT22;38158;53.338;6.514;2024-03-07T04:53:28;2.10;99.90
52181;DHT22;38158;53.338;6.514;2024-03-07T04:55:54;3.10;99.90
52181;DHT22;38158;53.338;6.514;2024-03-07T04:58:21;2.10;99.90
52181;DHT22;38158;53.338;6.514;2024-03-07T05:00:47;2.10;99.90
52181;DHT22;38158;53.338;6.514;2024-03-07T05:03:12;2.10;99.90
52181;DHT22;38158;53.338;6.514;2024-03-07T05:05:38;2.10;99.90
52181;DHT22;38158;53.338;6.514;2024-03-07T05:08:04;2.00;99.90
52181;DHT22;38158;53.338;6.514;2024-03-07T05:10:30;2.00;99.90
52181;DHT22;38158;53.338;6.514;2024-03-07T05:12:56;2.00;99.90
52181;DHT22;38158;53.338;6.514;2024-03-07T05:15:24;2.00;99.90
52181;DHT22;38158;53.338;6.514;2024-03-07T05:17:52;1.90;99.90
52181;DHT22;38158;53.338;6.514;2024-03-07T05:20:18;1.90;99.90
52181;DHT22;38158;53.338;6.514;2024-03-07T05:22:44;1.90;99.90
52181;DHT22;38158;53.338;6.514;2024-03-07T05:25:13;1.80;99.90
52181;DHT22;38158;53.338;6.514;2024-03-07T05:27:39;1.80;99.90
52181;DHT22;38158;53.338;6.514;2024-03-07T05:30:05;1.80;99.90
52181;DHT22;38158;53.338;6.514;2024-03-07T05:32:31;1.80;99.90
52181;DHT22;38158;53.338;6.514;2024-03-07T05:34:59;1.80;99.90
52181;DHT22;38158;53.338;6.514;2024-03-07T05:37:25;2.70;99.90
52181;DHT22;38158;53.338;6.514;2024-03-07T05:39:51;1.80;99.90
52181;DHT22;38158;53.338;6.514;2024-03-07T05:42:18;2.90;99.90
52181;DHT22;38158;53.338;6.514;2024-03-07T05:44:44;1.70;99.90
52181;DHT22;38158;53.338;6.514;2024-03-07T05:47:10;1.70;99.90
52181;DHT22;38158;53.338;6.514;2024-03-07T05:49:38;1.60;99.90
52181;DHT22;38158;53.338;6.514;2024-03-07T05:52:05;1.60;99.90
52181;DHT22;38158;53.338;6.514;2024-03-07T05:54:33;1.60;99.90
52181;DHT22;38158;53.338;6.514;2024-03-07T05:57:00;1.60;99.90
52181;DHT22;38158;53.338;6.514;2024-03-07T05:59:26;1.50;99.90
52181;DHT22;38158;53.338;6.514;2024-03-07T06:01:54;1.50;99.90
52181;DHT22;38158;53.338;6.514;2024-03-07T06:04:21;1.40;99.90
52181;DHT22;38158;53.338;6.514;2024-03-07T06:06:46;1.80;99.90
52181;DHT22;38158;53.338;6.514;2024-03-07T06:09:14;1.30;99.90
52181;DHT22;38158;53.338;6.514;2024-03-07T06:11:39;1.30;99.90
52181;DHT22;38158;53.338;6.514;2024-03-07T06:14:09;1.30;99.90
52181;DHT22;38158;53.338;6.514;2024-03-07T06:16:37;1.30;99.90
52181;DHT22;38158;53.338;6.514;2024-03-07T06:19:04;1.30;99.90
52181;DHT22;38158;53.338;6.514;2024-03-07T06:21:30;1.30;99.90
52181;DHT22;38158;53.338;6.514;2024-03-07T06:24:02;1.30;99.90
52181;DHT22;38158;53.338;6.514;2024-03-07T06:26:30;1.30;99.90
52181;DHT22;38158;53.338;6.514;2024-03-07T06:29:05;1.40;99.90
52181;DHT22;38158;53.338;6.514;2024-03-07T06:31:32;1.50;99.90
52181;DHT22;38158;53.338;6.514;2024-03-07T06:33:57;1.60;99.90
52181;DHT22;38158;53.338;6.514;2024-03-07T06:36:23;1.60;99.90
52181;DHT22;38158;53.338;6.514;2024-03-07T06:38:50;2.50;99.90
52181;DHT22;38158;53.338;6.514;2024-03-07T06:41:16;3.20;99.90
52181;DHT22;38158;53.338;6.514;2024-03-07T06:43:45;3.20;99.90
52181;DHT22;38158;53.338;6.514;2024-03-07T06:46:11;1.90;99.90
52181;DHT22;38158;53.338;6.514;2024-03-07T06:48:38;2.00;99.90
52181;DHT22;38158;53.338;6.514;2024-03-07T06:51:06;2.10;99.90
52181;DHT22;38158;53.338;6.514;2024-03-07T06:53:31;2.10;99.90
52181;DHT22;38158;53.338;6.514;2024-03-07T06:55:57;2.00;99.90
52181;DHT22;38158;53.338;6.514;2024-03-07T06:58:23;2.10;99.90
52181;DHT22;38158;53.338;6.514;2024-03-07T07:00:49;3.70;99.90
52181;DHT22;38158;53.338;6.514;2024-03-07T07:03:20;2.10;99.90
52181;DHT22;38158;53.338;6.514;2024-03-07T07:05:48;2.20;99.90
52181;DHT22;38158;53.338;6.514;2024-03-07T07:08:13;2.20;99.90
52181;DHT22;38158;53.338;6.514;2024-03-07T07:10:40;2.50;99.90
52181;DHT22;38158;53.338;6.514;2024-03-07T07:13:06;2.20;99.90
52181;DHT22;38158;53.338;6.514;2024-03-07T07:15:32;2.30;99.90
52181;DHT22;38158;53.338;6.514;2024-03-07T07:17:58;3.20;99.90
52181;DHT22;38158;53.338;6.514;2024-03-07T07:20:25;2.30;99.90
52181;DHT22;38158;53.338;6.514;2024-03-07T07:22:51;2.30;99.90
52181;DHT22;38158;53.338;6.514;2024-03-07T07:25:18;2.30;99.90
52181;DHT22;38158;53.338;6.514;2024-03-07T07:27:46;3.50;99.90
52181;DHT22;38158;53.338;6.514;2024-03-07T07:30:14;2.40;99.90
52181;DHT22;38158;53.338;6.514;2024-03-07T07:32:40;2.40;99.90
52181;DHT22;38158;53.338;6.514;2024-03-07T07:35:07;2.50;99.90
52181;DHT22;38158;53.338;6.514;2024-03-07T07:37:44;2.40;99.90
52181;DHT22;38158;53.338;6.514;2024-03-07T07:40:12;2.50;99.90
52181;DHT22;38158;53.338;6.514;2024-03-07T07:42:40;2.50;99.90
52181;DHT22;38158;53.338;6.514;2024-03-07T07:45:10;2.50;99.90
52181;DHT22;38158;53.338;6.514;2024-03-07T07:47:40;2.40;99.90
52181;DHT22;38158;53.338;6.514;2024-03-07T07:50:17;2.30;99.90
52181;DHT22;38158;53.338;6.514;2024-03-07T07:52:45;3.30;99.90
52181;DHT22;38158;53.338;6.514;2024-03-07T07:55:16;2.30;99.90
52181;DHT22;38158;53.338;6.514;2024-03-07T07:57:44;2.30;99.90
52181;DHT22;38158;53.338;6.514;2024-03-07T08:00:14;2.30;99.90
52181;DHT22;38158;53.338;6.514;2024-03-07T08:03:07;2.30;99.90
52181;DHT22;38158;53.338;6.514;2024-03-07T08:05:33;2.70;99.90
52181;DHT22;38158;53.338;6.514;2024-03-07T08:08:09;2.80;99.90
52181;DHT22;38158;53.338;6.514;2024-03-07T08:10:39;2.20;99.90
52181;DHT22;38158;53.338;6.514;2024-03-07T08:13:06;2.20;99.90
52181;DHT22;38158;53.338;6.514;2024-03-07T08:15:33;2.10;99.90
52181;DHT22;38158;53.338;6.514;2024-03-07T08:17:59;2.30;99.90
52181;DHT22;38158;53.338;6.514;2024-03-07T08:20:26;2.00;99.90
52181;DHT22;38158;53.338;6.514;2024-03-07T08:22:53;3.00;99.90
52181;DHT22;38158;53.338;6.514;2024-03-07T08:25:22;2.00;99.90
52181;DHT22;38158;53.338;6.514;2024-03-07T08:27:49;2.10;99.90
52181;DHT22;38158;53.338;6.514;2024-03-07T08:30:16;3.30;99.90
52181;DHT22;38158;53.338;6.514;2024-03-07T08:32:46;2.50;99.90
52181;DHT22;38158;53.338;6.514;2024-03-07T08:35:12;2.10;99.90
52181;DHT22;38158;53.338;6.514;2024-03-07T08:37:39;2.10;99.90
52181;DHT22;38158;53.338;6.514;2024-03-07T08:40:06;2.20;99.90
52181;DHT22;38158;53.338;6.514;2024-03-07T08:42:33;2.20;99.90
52181;DHT22;38158;53.338;6.514;2024-03-07T08:45:00;2.20;99.90
52181;DHT22;38158;53.338;6.514;2024-03-07T08:47:30;2.50;99.90
52181;DHT22;38158;53.338;6.514;2024-03-07T08:49:56;2.20;99.90
52181;DHT22;38158;53.338;6.514;2024-03-07T08:52:22;2.20;99.90
52181;DHT22;38158;53.338;6.514;2024-03-07T08:54:48;2.20;99.90
52181;DHT22;38158;53.338;6.514;2024-03-07T08:57:14;2.20;99.90
52181;DHT22;38158;53.338;6.514;2024-03-07T08:59:42;2.30;99.90
52181;DHT22;38158;53.338;6.514;2024-03-07T09:02:09;2.30;99.90
52181;DHT22;38158;53.338;6.514;2024-03-07T09:04:36;2.30;99.90
52181;DHT22;38158;53.338;6.514;2024-03-07T09:07:02;2.20;99.90
52181;DHT22;38158;53.338;6.514;2024-03-07T09:09:27;2.30;99.90
52181;DHT22;38158;53.338;6.514;2024-03-07T09:11:53;2.20;99.90
52181;DHT22;38158;53.338;6.514;2024-03-07T09:14:19;2.30;99.90
52181;DHT22;38158;53.338;6.514;2024-03-07T09:16:46;2.40;99.90
52181;DHT22;38158;53.338;6.514;2024-03-07T09:19:14;2.40;99.90
52181;DHT22;38158;53.338;6.514;2024-03-07T09:21:48;2.40;99.90
52181;DHT22;38158;53.338;6.514;2024-03-07T09:24:15;2.40;99.90
52181;DHT22;38158;53.338;6.514;2024-03-07T09:26:41;2.40;99.90
52181;DHT22;38158;53.338;6.514;2024-03-07T09:29:07;2.40;99.90
52181;DHT22;38158;53.338;6.514;2024-03-07T09:31:33;2.50;99.90
52181;DHT22;38158;53.338;6.514;2024-03-07T09:33:58;2.50;99.90
52181;DHT22;38158;53.338;6.514;2024-03-07T09:36:25;3.10;99.90
52181;DHT22;38158;53.338;6.514;2024-03-07T09:38:50;2.60;99.90
52181;DHT22;38158;53.338;6.514;2024-03-07T09:41:16;2.60;99.90
52181;DHT22;38158;53.338;6.514;2024-03-07T09:43:51;2.70;99.90
52181;DHT22;38158;53.338;6.514;2024-03-07T09:46:24;2.70;99.90
52181;DHT22;38158;53.338;6.514;2024-03-07T09:48:50;2.80;99.90
52181;DHT22;38158;53.338;6.514;2024-03-07T09:51:22;3.40;99.90
52181;DHT22;38158;53.338;6.514;2024-03-07T09:53:53;2.80;99.90
52181;DHT22;38158;53.338;6.514;2024-03-07T09:56:21;2.80;99.90
52181;DHT22;38158;53.338;6.514;2024-03-07T09:58:51;2.80;99.90
52181;DHT22;38158;53.338;6.514;2024-03-07T10:01:20;2.90;99.90
52181;DHT22;38158;53.338;6.514;2024-03-07T10:03:50;2.90;99.90
52181;DHT22;38158;53.338;6.514;2024-03-07T10:06:19;3.20;99.90
52181;DHT22;38158;53.338;6.514;2024-03-07T10:08:47;3.10;99.90
52181;DHT22;38158;53.338;6.514;2024-03-07T10:11:13;3.00;99.90
52181;DHT22;38158;53.338;6.514;2024-03-07T10:13:39;3.00;99.90
52181;DHT22;38158;53.338;6.514;2024-03-07T10:16:07;3.10;99.90
52181;DHT22;38158;53.338;6.514;2024-03-07T10:18:41;3.30;99.90
52181;DHT22;38158;53.338;6.514;2024-03-07T10:21:08;3.10;99.90
52181;DHT22;38158;53.338;6.514;2024-03-07T10:23:33;3.10;99.90
52181;DHT22;38158;53.338;6.514;2024-03-07T10:26:00;3.20;99.90
52181;DHT22;38158;53.338;6.514;2024-03-07T10:28:27;3.20;99.90
52181;DHT22;38158;53.338;6.514;2024-03-07T10:30:53;3.30;99.90
52181;DHT22;38158;53.338;6.514;2024-03-07T10:33:19;3.40;99.90
52181;DHT22;38158;53.338;6.514;2024-03-07T10:35:48;3.40;99.90
52181;DHT22;38158;53.338;6.514;2024-03-07T10:38:16;3.40;99.90
52181;DHT22;38158;53.338;6.514;2024-03-07T10:40:47;5.00;99.90
52181;DHT22;38158;53.338;6.514;2024-03-07T10:43:13;3.40;99.90
52181;DHT22;38158;53.338;6.514;2024-03-07T10:45:46;3.40;99.90
52181;DHT22;38158;53.338;6.514;2024-03-07T10:48:12;3.40;99.90
52181;DHT22;38158;53.338;6.514;2024-03-07T10:50:42;3.40;99.90
52181;DHT22;38158;53.338;6.514;2024-03-07T10:58:37;3.40;99.90
52181;DHT22;38158;53.338;6.514;2024-03-07T11:01:04;3.40;99.90
52181;DHT22;38158;53.338;6.514;2024-03-07T11:03:40;3.40;99.90
52181;DHT22;38158;53.338;6.514;2024-03-07T11:06:07;3.40;99.90
52181;DHT22;38158;53.338;6.514;2024-03-07T11:08:37;3.40;99.90
52181;DHT22;38158;53.338;6.514;2024-03-07T11:11:04;3.40;99.90
52181;DHT22;38158;53.338;6.514;2024-03-07T11:13:33;3.50;99.90
52181;DHT22;38158;53.338;6.514;2024-03-07T11:16:00;3.50;99.90
52181;DHT22;38158;53.338;6.514;2024-03-07T11:18:26;3.50;99.90
52181;DHT22;38158;53.338;6.514;2024-03-07T11:20:54;3.90;99.90
52181;DHT22;38158;53.338;6.514;2024-03-07T11:23:30;3.50;99.90
52181;DHT22;38158;53.338;6.514;2024-03-07T11:26:05;3.60;99.90
52181;DHT22;38158;53.338;6.514;2024-03-07T11:28:35;3.60;99.90
52181;DHT22;38158;53.338;6.514;2024-03-07T11:31:14;4.50;99.90
52181;DHT22;38158;53.338;6.514;2024-03-07T11:33:41;3.60;99.90
52181;DHT22;38158;53.338;6.514;2024-03-07T11:36:10;3.60;99.90
52181;DHT22;38158;53.338;6.514;2024-03-07T11:38:47;3.60;99.90
52181;DHT22;38158;53.338;6.514;2024-03-07T11:41:14;3.70;99.90
52181;DHT22;38158;53.338;6.514;2024-03-07T11:43:43;3.80;99.90
52181;DHT22;38158;53.338;6.514;2024-03-07T11:46:08;3.90;99.90
52181;DHT22;38158;53.338;6.514;2024-03-07T11:48:40;4.00;99.90
52181;DHT22;38158;53.338;6.514;2024-03-07T11:51:13;4.20;99.90
52181;DHT22;38158;53.338;6.514;2024-03-07T11:53:39;4.30;99.90
52181;DHT22;38158;53.338;6.514;2024-03-07T11:56:05;4.40;99.90
52181;DHT22;38158;53.338;6.514;2024-03-07T11:58:38;4.50;99.90
52181;DHT22;38158;53.338;6.514;2024-03-07T12:01:06;4.60;99.90
52181;DHT22;38158;53.338;6.514;2024-03-07T12:03:36;4.70;99.90
52181;DHT22;38158;53.338;6.514;2024-03-07T12:06:03;4.80;99.90
52181;DHT22;38158;53.338;6.514;2024-03-07T12:08:29;4.90;99.90
52181;DHT22;38158;53.338;6.514;2024-03-07T12:10:55;5.70;99.90
52181;DHT22;38158;53.338;6.514;2024-03-07T12:13:22;5.10;99.90
52181;DHT22;38158;53.338;6.514;2024-03-07T12:15:50;5.10;99.90
52181;DHT22;38158;53.338;6.514;2024-03-07T12:18:18;5.10;99.90
52181;DHT22;38158;53.338;6.514;2024-03-07T12:20:46;5.10;99.90
52181;DHT22;38158;53.338;6.514;2024-03-07T12:23:16;5.10;99.90
52181;DHT22;38158;53.338;6.514;2024-03-07T12:25:45;5.20;99.90
52181;DHT22;38158;53.338;6.514;2024-03-07T12:28:12;6.20;99.90
52181;DHT22;38158;53.338;6.514;2024-03-07T12:30:47;5.30;99.90
52181;DHT22;38158;53.338;6.514;2024-03-07T12:33:15;5.40;99.90
52181;DHT22;38158;53.338;6.514;2024-03-07T12:35:43;5.30;99.90
52181;DHT22;38158;53.338;6.514;2024-03-07T12:38:09;5.40;99.90
52181;DHT22;38158;53.338;6.514;2024-03-07T12:40:44;5.40;99.90
52181;DHT22;38158;53.338;6.514;2024-03-07T12:43:16;5.50;99.90
52181;DHT22;38158;53.338;6.514;2024-03-07T12:45:48;6.30;99.90
52181;DHT22;38158;53.338;6.514;2024-03-07T12:48:14;6.30;99.90
52181;DHT22;38158;53.338;6.514;2024-03-07T12:50:48;5.90;99.90
52181;DHT22;38158;53.338;6.514;2024-03-07T12:53:19;7.20;99.90
52181;DHT22;38158;53.338;6.514;2024-03-07T12:55:45;6.10;99.90
52181;DHT22;38158;53.338;6.514;2024-03-07T12:58:12;6.10;99.90
52181;DHT22;38158;53.338;6.514;2024-03-07T13:00:38;6.20;99.90
52181;DHT22;38158;53.338;6.514;2024-03-07T13:03:05;6.00;99.90
52181;DHT22;38158;53.338;6.514;2024-03-07T13:05:31;6.00;99.90
52181;DHT22;38158;53.338;6.514;2024-03-07T13:07:57;6.10;99.90
52181;DHT22;38158;53.338;6.514;2024-03-07T13:10:22;7.30;99.90
52181;DHT22;38158;53.338;6.514;2024-03-07T13:12:49;6.40;99.90
52181;DHT22;38158;53.338;6.514;2024-03-07T13:15:15;6.10;99.90
52181;DHT22;38158;53.338;6.514;2024-03-07T13:17:41;6.10;99.90
52181;DHT22;38158;53.338;6.514;2024-03-07T13:20:11;6.00;99.90
52181;DHT22;38158;53.338;6.514;2024-03-07T13:22:39;6.00;99.90
52181;DHT22;38158;53.338;6.514;2024-03-07T13:25:05;6.00;99.90
52181;DHT22;38158;53.338;6.514;2024-03-07T13:27:40;6.00;99.90
52181;DHT22;38158;53.338;6.514;2024-03-07T13:30:06;6.00;99.90
52181;DHT22;38158;53.338;6.514;2024-03-07T13:32:33;6.10;99.90
52181;DHT22;38158;53.338;6.514;2024-03-07T13:34:58;6.10;99.90
52181;DHT22;38158;53.338;6.514;2024-03-07T13:37:27;6.10;99.90
52181;DHT22;38158;53.338;6.514;2024-03-07T13:39:52;6.20;99.90
52181;DHT22;38158;53.338;6.514;2024-03-07T13:42:18;6.50;99.90
52181;DHT22;38158;53.338;6.514;2024-03-07T13:44:43;6.20;99.90
52181;DHT22;38158;53.338;6.514;2024-03-07T13:47:10;6.30;99.90
52181;DHT22;38158;53.338;6.514;2024-03-07T13:49:36;6.30;99.90
52181;DHT22;38158;53.338;6.514;2024-03-07T13:52:03;6.50;99.90
52181;DHT22;38158;53.338;6.514;2024-03-07T13:54:36;6.40;99.90
52181;DHT22;38158;53.338;6.514;2024-03-07T14:00:05;6.40;99.90
52181;DHT22;38158;53.338;6.514;2024-03-07T14:03:21;6.40;99.90
52181;DHT22;38158;53.338;6.514;2024-03-07T14:06:05;6.50;99.90
52181;DHT22;38158;53.338;6.514;2024-03-07T14:08:55;6.40;99.90
52181;DHT22;38158;53.338;6.514;2024-03-07T14:11:41;6.50;99.90
52181;DHT22;38158;53.338;6.514;2024-03-07T14:26:30;6.60;99.90
52181;DHT22;38158;53.338;6.514;2024-03-07T14:31:57;6.70;99.90
52181;DHT22;38158;53.338;6.514;2024-03-07T14:34:54;6.70;99.90
52181;DHT22;38158;53.338;6.514;2024-03-07T14:37:27;6.70;99.90
52181;DHT22;38158;53.338;6.514;2024-03-07T14:40:09;8.00;99.90
52181;DHT22;38158;53.338;6.514;2024-03-07T14:42:39;6.70;99.90
52181;DHT22;38158;53.338;6.514;2024-03-07T14:45:07;6.70;99.90
52181;DHT22;38158;53.338;6.514;2024-03-07T14:47:35;6.80;99.90
52181;DHT22;38158;53.338;6.514;2024-03-07T14:50:01;6.80;99.90
52181;DHT22;38158;53.338;6.514;2024-03-07T14:52:27;6.80;99.90
52181;DHT22;38158;53.338;6.514;2024-03-07T14:54:55;6.80;99.90
52181;DHT22;38158;53.338;6.514;2024-03-07T14:57:20;6.80;99.90
52181;DHT22;38158;53.338;6.514;2024-03-07T14:59:46;6.80;99.90
52181;DHT22;38158;53.338;6.514;2024-03-07T15:02:12;6.70;99.90
52181;DHT22;38158;53.338;6.514;2024-03-07T15:04:39;6.70;99.90
52181;DHT22;38158;53.338;6.514;2024-03-07T15:07:06;6.60;99.90
52181;DHT22;38158;53.338;6.514;2024-03-07T15:09:35;6.50;99.90
52181;DHT22;38158;53.338;6.514;2024-03-07T15:12:05;7.20;99.90
52181;DHT22;38158;53.338;6.514;2024-03-07T15:14:32;6.50;99.90
52181;DHT22;38158;53.338;6.514;2024-03-07T15:16:58;6.80;99.90
52181;DHT22;38158;53.338;6.514;2024-03-07T15:19:23;6.50;99.90
52181;DHT22;38158;53.338;6.514;2024-03-07T15:21:49;6.40;99.90
52181;DHT22;38158;53.338;6.514;2024-03-07T15:24:18;6.50;99.90
52181;DHT22;38158;53.338;6.514;2024-03-07T15:26:46;6.50;99.90
52181;DHT22;38158;53.338;6.514;2024-03-07T15:29:12;6.40;99.90
52181;DHT22;38158;53.338;6.514;2024-03-07T15:31:38;7.30;99.90
52181;DHT22;38158;53.338;6.514;2024-03-07T15:34:03;6.50;99.90
52181;DHT22;38158;53.338;6.514;2024-03-07T15:36:29;6.50;99.90
52181;DHT22;38158;53.338;6.514;2024-03-07T15:38:54;6.50;99.90
52181;DHT22;38158;53.338;6.514;2024-03-07T15:41:22;7.80;99.90
52181;DHT22;38158;53.338;6.514;2024-03-07T15:43:48;6.60;99.90
52181;DHT22;38158;53.338;6.514;2024-03-07T15:46:14;6.50;99.90
52181;DHT22;38158;53.338;6.514;2024-03-07T15:48:47;6.60;99.90
52181;DHT22;38158;53.338;6.514;2024-03-07T15:51:13;6.60;99.90
52181;DHT22;38158;53.338;6.514;2024-03-07T15:53:40;6.60;99.90
52181;DHT22;38158;53.338;6.514;2024-03-07T15:56:06;7.50;99.90
52181;DHT22;38158;53.338;6.514;2024-03-07T15:58:32;6.50;99.90
52181;DHT22;38158;53.338;6.514;2024-03-07T16:00:58;6.50;99.90
52181;DHT22;38158;53.338;6.514;2024-03-07T16:03:23;6.80;99.90
52181;DHT22;38158;53.338;6.514;2024-03-07T16:05:50;7.40;99.90
52181;DHT22;38158;53.338;6.514;2024-03-07T16:08:17;6.50;99.90
52181;DHT22;38158;53.338;6.514;2024-03-07T16:10:43;6.90;99.90
52181;DHT22;38158;53.338;6.514;2024-03-07T16:13:12;6.50;99.90